»·PEaware :: SWA980 KLAS-KSFO

SWA980 :: KLAS-KSFO

FLIGHT INFORMATION

Flight Status: Arrived
Operator:
Southwest Airlines
More flights by this operator :: More flights under this callsign
Pilot: Anonymous 5456 (5456)
Aircraft: BOEING 737-700
(B737)
More flights by this aircraft type
Origin: KLAS McCarran Intl
United States
Destination: KSFO San Francisco Intl
United States
More flights between these airports :: More routes between these airports
Route: +SHEAD1 KENNO RUSME ALWYS2
File this flight plan on PilotEdge
Remarks:
Altitude:
(Current/Filed)
38,000ft
Speed:
(Current/Filed)
450kts
Departed: 15-May-19 08:40 PM
Arrived: 15-May-19 09:49 PM
Distance/Time
Traveled:
359nm/1:08
Distance/Time
To Go:
Arrived

Flight Plot

Page will automatically refresh every two minutes.

Flight plan parsing failed; only flown route is shown


Map Options




Map Legend


Flown Route
Filed Route
Departure Airport
Arrival Airport
Navaid (VOR, NDB)
Fix

Horizontal Profiles

Position Reports

Time Latitude Longitude Heading Altitude Ground
Speed
15-May-19 20:18 36.079760 -115.146264 342 2118ft 0kts
15-May-19 20:19 36.079760 -115.146264 342 2118ft 0kts
15-May-19 20:20 36.079760 -115.146264 342 2118ft 0kts
15-May-19 20:21 36.079760 -115.146264 342 2118ft 0kts
15-May-19 20:22 36.079760 -115.146264 342 2118ft 0kts
15-May-19 20:23 36.079760 -115.146264 342 2118ft 0kts
15-May-19 20:24 36.079760 -115.146264 342 2118ft 0kts
15-May-19 20:25 36.079760 -115.146264 342 2118ft 0kts
15-May-19 20:26 36.079760 -115.146264 342 2118ft 0kts
15-May-19 20:27 36.079248 -115.146059 342 2118ft 2kts
15-May-19 20:28 36.078916 -115.145505 269 2118ft 2kts
15-May-19 20:29 36.079243 -115.144923 197 2118ft 2kts
15-May-19 20:30 36.079411 -115.144889 183 2118ft 0kts
15-May-19 20:31 36.079411 -115.144889 183 2118ft 0kts
15-May-19 20:32 36.079411 -115.144889 183 2118ft 0kts
15-May-19 20:33 36.078310 -115.144860 162 2118ft 0kts
15-May-19 20:34 36.078233 -115.142542 92 2118ft 21kts
15-May-19 20:35 36.078243 -115.135409 89 2118ft 20kts
15-May-19 20:36 36.078252 -115.128657 89 2118ft 18kts
15-May-19 20:37 36.078205 -115.122733 110 2118ft 15kts
15-May-19 20:38 36.076547 -115.121450 222 2118ft 7kts
15-May-19 20:39 36.076310 -115.148934 265 2488ft 162kts
15-May-19 20:40 36.073015 -115.212424 251 4669ft 223kts
15-May-19 20:41 36.028013 -115.276894 204 6821ft 302kts
15-May-19 20:42 35.950885 -115.326360 221 7450ft 304kts
15-May-19 20:43 35.898981 -115.396204 238 9578ft 281kts
15-May-19 20:44 35.887032 -115.499599 267 10823ft 325kts
15-May-19 20:45 35.889738 -115.611294 267 10823ft 324kts
15-May-19 20:46 35.891655 -115.716813 265 12714ft 333kts
15-May-19 20:47 35.893397 -115.828879 265 16090ft 344kts
15-May-19 20:48 35.903532 -115.949446 283 19341ft 369kts
15-May-19 20:49 35.968191 -116.055487 310 22184ft 404kts
15-May-19 20:50 36.051368 -116.151312 310 22832ft 407kts
15-May-19 20:51 36.134372 -116.247628 310 22823ft 407kts
15-May-19 20:52 36.217462 -116.343986 310 23327ft 414kts
15-May-19 20:53 36.302660 -116.442638 310 25925ft 421kts
15-May-19 20:55 36.390265 -116.543956 309 28097ft 433kts
15-May-19 20:56 36.479527 -116.647590 309 30056ft 443kts
15-May-19 20:57 36.571629 -116.748248 316 32140ft 453kts
15-May-19 20:58 36.676802 -116.833956 319 34489ft 448kts
15-May-19 20:59 36.783605 -116.915942 319 36423ft 444kts
15-May-19 21:00 36.889132 -116.996917 319 37850ft 446kts
15-May-19 21:01 36.996875 -117.079515 320 37881ft 459kts
15-May-19 21:02 37.109605 -117.165928 322 37871ft 487kts
15-May-19 21:03 37.226935 -117.250339 331 37884ft 484kts
15-May-19 21:04 37.334816 -117.348434 312 37869ft 478kts
15-May-19 21:05 37.432879 -117.460458 303 37839ft 470kts
15-May-19 21:06 37.493832 -117.600313 280 37811ft 447kts
15-May-19 21:07 37.510228 -117.750790 266 37803ft 433kts
15-May-19 21:08 37.518752 -117.902320 267 37782ft 432kts
15-May-19 21:09 37.528168 -118.053759 267 37777ft 434kts
15-May-19 21:10 37.537796 -118.205252 268 37780ft 434kts
15-May-19 21:11 37.547656 -118.357076 268 37788ft 433kts
15-May-19 21:12 37.557639 -118.508342 268 37865ft 434kts
15-May-19 21:13 37.567744 -118.657837 267 37922ft 425kts
15-May-19 21:14 37.577926 -118.807507 267 37952ft 426kts
15-May-19 21:15 37.588300 -118.955821 268 37953ft 423kts
15-May-19 21:15 37.596962 -119.077858 268 37950ft 418kts
15-May-19 21:17 37.609345 -119.249907 268 37960ft 422kts
15-May-19 21:18 37.620215 -119.397090 268 37956ft 421kts
15-May-19 21:19 37.631250 -119.545024 268 37956ft 421kts
15-May-19 21:20 37.641912 -119.684567 267 37915ft 394kts
15-May-19 21:20 37.650763 -119.800802 268 37878ft 396kts
15-May-19 21:22 37.663341 -119.960843 268 35493ft 393kts
15-May-19 21:22 37.672460 -120.075667 268 33028ft 398kts
15-May-19 21:23 37.683693 -120.214810 268 30373ft 392kts
15-May-19 21:24 37.694846 -120.350465 269 27991ft 382kts
15-May-19 21:25 37.690897 -120.479559 253 25626ft 360kts
15-May-19 21:27 37.673508 -120.623678 254 22982ft 350kts
15-May-19 21:27 37.662619 -120.717004 253 21812ft 336kts
15-May-19 21:28 37.648607 -120.834012 253 20434ft 334kts
15-May-19 21:29 37.639069 -120.950302 263 18434ft 336kts
15-May-19 21:30 37.653443 -121.066789 274 16713ft 331kts
15-May-19 21:31 37.674037 -121.177567 275 15378ft 306kts
15-May-19 21:32 37.692953 -121.280184 275 13815ft 296kts
15-May-19 21:33 37.711262 -121.380604 275 12191ft 289kts
15-May-19 21:34 37.729110 -121.477953 275 10820ft 277kts
15-May-19 21:35 37.745740 -121.569250 276 10029ft 274kts
15-May-19 21:36 37.760399 -121.649860 276 9697ft 269kts
15-May-19 21:37 37.776572 -121.739062 276 9030ft 268kts
15-May-19 21:38 37.794263 -121.833686 276 9022ft 267kts
15-May-19 21:39 37.810586 -121.921056 277 7644ft 266kts
15-May-19 21:40 37.824454 -121.995696 277 6449ft 266kts
15-May-19 21:41 37.841546 -122.088233 278 5059ft 263kts
15-May-19 21:42 37.845376 -122.168947 232 4576ft 226kts
15-May-19 21:43 37.808610 -122.240956 229 4034ft 243kts
15-May-19 21:44 37.760128 -122.282357 202 3140ft 221kts
15-May-19 21:45 37.706007 -122.317960 203 1804ft 210kts
15-May-19 21:46 37.662039 -122.347339 200 893ft 144kts
15-May-19 21:47 37.629237 -122.369118 199 199ft 126kts
15-May-19 21:48 37.616690 -122.378153 276 19ft 0kts
15-May-19 21:49 37.616708 -122.378971 265 19ft 17kts
15-May-19 21:50 37.613788 -122.381476 208 19ft 10kts
15-May-19 21:51 37.613010 -122.382564 227 19ft 4kts
15-May-19 21:52 37.612861 -122.383151 288 19ft 0kts
15-May-19 21:53 37.612861 -122.383151 288 19ft 0kts
15-May-19 21:54 37.612861 -122.383151 288 19ft 0kts
15-May-19 21:55 37.612861 -122.383151 288 19ft 0kts
15-May-19 21:56 37.612861 -122.383151 288 19ft 0kts

Navigation Log

Ident Type
Flight plan parsing failed, navigation log unavailable